Martin City, MT (59926)

6:07 AM MST on February 11, 2016 (GMT -0700)
Glacier Hills West | | Change Station
CLOSE
Current Station
Personal Weather Station
Location: Martin City, MT
Elevation: 3450 ft
Nearby Weather Stations

Elev 3450 ft 48.38 °N, 114.04 °W | Updated 7 seconds ago

Partly Cloudy
Partly Cloudy
36.9 °F
Feels Like 37 °F
N
0.0
Wind Variable Wind from SSW
Gusts 0.0 mph

Today
High -- | Low -- °F
--% Chance of Precip.
Yesterday
High -- | Low -- °F
Precip. -- in
Pressure 30.08 in
Visibility 10.0 miles
Clouds Clear
Windchill 37 °F
Dew Point 29 °F
Humidity 74%
Rainfall 0.00 in
Snow Depth Not available.
7:50 AM 5:50 PM
Waxing Crescent, 12% visible
METAR KCTB 111256Z AUTO 26020KT 10SM CLR 06/M03 A3006 RMK AO2 PK WND 26035/1202 SLP185 T00561033 TSNO
Pressure 30.08 in
Visibility 10.0 miles
Clouds Clear
Windchill 37 °F
Dew Point 29 °F
Humidity 74%
Rainfall 0.00 in
Snow Depth Not available.
7:50 AM 5:50 PM
Waxing Crescent, 12% visible
METAR KCTB 111256Z AUTO 26020KT 10SM CLR 06/M03 A3006 RMK AO2 PK WND 26035/1202 SLP185 T00561033 TSNO

10-Day Weather Forecast

Almanac

Astronomy

Feb. 11, 2016 Rise Set
Actual Time
Civil Twilight
Nautical Twilight
Astronomical Twilight
Moon
Length of Visible Light
Length of Day
Tomorrow will be .
, % of the Moon is Illuminated

Today's Extremes

State Highs State Lows

Community

WunderPhotos

Upload Photos

1,892,038 photos uploaded!

WunderBlog® & News

Nearby

Air Quality

  Air Quality AQ Index Pollutant
Not available.

Snow Depth

Station Depth Elevation

Earthquake Activity

City Distance Mag. Time & Date
Minimum magnitude displayed is 2.5.

Coastal Water Temperatures

Place Temperature

Stations

Nearby Weather Stations

Station Location Temp. Windchill Dew Point Humidity Wind Precip. Elev Updated Type
                   

Watches & Warnings

There are currently no watches in effect.